PASY METAR and TAF weather

Enter ICAO airport designator
Station Type Date Time Source
PASY METAR 2020/07/04 08:55 UTC NOAA

PASY 040855Z 23017KT 1/4SM FG VV001 07/07 A2961 RMK AO2A SLP028 SLP ESTMD T00730071 53019 RVRNO PNO $


Station Type Date Time Source
PASY Decoded METAR 2020/07/04 08:55 UTC NOAA

SHEMYA EARECKSON AS, AK, United States (PASY) 52-43N 174-07E
Jul 04, 2020 - 04:55 AM EDT / 2020.07.04 0855 UTC
Wind: from the SW (230 degrees) at 20 MPH (17 KT):0
Visibility: 1/4 mile(s):0
Sky conditions: obscured
Weather: fog
Temperature: 45.1 F (7.3 C)
Dew Point: 44.8 F (7.1 C)
Relative Humidity: 98%
Pressure (altimeter): 29.61 in. Hg (1002 hPa)
Pressure tendency: 0.06 inches (1.9 hPa) higher than three hours ago
ob: PASY 040855Z 23017KT 1/4SM FG VV001 07/07 A2961 RMK AO2A SLP028 SLP ESTMD T00730071 53019 RVRNO PNO
cycle: 9

Station Type Date Time Source
PASY TAF 2020/07/04 06:21 UTC NOAA

TAF PASY 040600Z 0406/0512 23015KT 2400 BR OVC001 QNH2957INS
TEMPO 0412/0416 OVC002
BECMG 0416/0417 22015KT 8000 BR FEW002 BKN020 QNH2965INS
BECMG 0502/0503 22020KT 6000 -RA BR OVC001 QNH2987INS TX09/0502Z TN06/0414Z

Example: see airport list